createdAt,value
2019-01-13T00:01:24.042Z,83.78
2019-01-13T00:06:42.323Z,83.71
2019-01-13T00:12:01.462Z,83.07
2019-01-13T00:17:19.796Z,83.58
2019-01-13T00:22:39.164Z,83.44
2019-01-13T00:27:57.954Z,82.75
2019-01-13T00:33:16.553Z,83.25
2019-01-13T00:38:35.345Z,83.29
2019-01-13T00:43:54.670Z,83.41
2019-01-13T00:49:13.671Z,83.77
2019-01-13T00:54:32.916Z,83.85
2019-01-13T00:59:52.021Z,83.51
2019-01-13T01:05:11.855Z,83.91
2019-01-13T01:10:31.272Z,83.91
2019-01-13T01:15:49.504Z,84.12
2019-01-13T01:21:08.457Z,84.24
2019-01-13T01:26:28.174Z,83.56
2019-01-13T01:31:47.186Z,83.92
2019-01-13T01:37:06.316Z,84.29
2019-01-13T01:42:24.768Z,84.72
2019-01-13T01:47:43.847Z,84.36
2019-01-13T01:53:02.709Z,83.87
2019-01-13T01:58:21.263Z,83.85
2019-01-13T02:03:39.852Z,84.09
2019-01-13T02:08:58.728Z,85.29
2019-01-13T02:14:18.111Z,84.06
2019-01-13T02:19:36.701Z,84.45
2019-01-13T02:24:55.165Z,84.70
2019-01-13T02:30:16.520Z,84.63
2019-01-13T02:35:34.826Z,84.18
2019-01-13T02:40:53.733Z,85.29
2019-01-13T02:46:13.238Z,85.21
2019-01-13T02:51:31.952Z,84.43
2019-01-13T02:56:50.265Z,84.35
2019-01-13T03:02:09.309Z,84.24
2019-01-13T03:07:28.593Z,83.81
2019-01-13T03:12:47.054Z,84.28
2019-01-13T03:18:06.686Z,84.26
2019-01-13T03:23:25.235Z,84.37
2019-01-13T03:28:44.156Z,83.79
2019-01-13T03:34:03.097Z,84.12
2019-01-13T03:39:21.425Z,84.16
2019-01-13T03:44:40.859Z,84.43
2019-01-13T03:49:59.395Z,84.14
2019-01-13T03:55:19.665Z,84.17
2019-01-13T04:00:37.835Z,83.81
2019-01-13T04:05:56.026Z,83.82
2019-01-13T04:11:14.597Z,84.08
2019-01-13T04:16:33.644Z,84.05
2019-01-13T04:21:51.989Z,83.91
2019-01-13T04:27:10.836Z,84.31
2019-01-13T04:32:30.866Z,84.11
2019-01-13T04:37:49.158Z,84.57
2019-01-13T04:43:07.320Z,83.62
2019-01-13T04:48:26.731Z,83.90
2019-01-13T04:53:45.399Z,83.98
2019-01-13T04:59:04.141Z,83.46
2019-01-13T05:04:23.297Z,83.90
2019-01-13T05:09:41.417Z,83.22
2019-01-13T05:14:59.903Z,83.37
2019-01-13T05:20:17.616Z,82.71
2019-01-13T05:25:34.789Z,83.57
2019-01-13T05:30:52.311Z,83.17
2019-01-13T05:36:09.700Z,83.33
2019-01-13T05:41:29.972Z,83.36
2019-01-13T05:46:49.174Z,82.67
2019-01-13T05:52:06.294Z,83.18
2019-01-13T05:57:24.174Z,84.02
2019-01-13T06:02:41.602Z,83.15
2019-01-13T06:07:59.599Z,83.50
2019-01-13T06:13:17.457Z,83.23
2019-01-13T06:18:34.947Z,83.18
2019-01-13T06:23:52.890Z,82.98
2019-01-13T06:29:10.766Z,83.00
2019-01-13T06:34:28.390Z,82.32
2019-01-13T06:39:46.675Z,83.42
2019-01-13T06:45:04.989Z,82.05
2019-01-13T06:50:22.902Z,82.41
2019-01-13T06:55:40.569Z,82.27
2019-01-13T07:00:57.999Z,81.50
2019-01-13T07:06:15.122Z,82.16
2019-01-13T07:11:33.025Z,82.17
2019-01-13T07:16:50.916Z,82.12
2019-01-13T07:22:08.270Z,82.31
2019-01-13T07:27:25.388Z,82.50
2019-01-13T07:32:43.015Z,82.58
2019-01-13T07:38:00.361Z,83.13
2019-01-13T07:43:18.245Z,83.01
2019-01-13T07:48:36.470Z,82.81
2019-01-13T07:53:53.860Z,82.05
2019-01-13T07:59:11.674Z,81.70
2019-01-13T08:04:29.935Z,81.77
2019-01-13T08:09:47.523Z,81.60
2019-01-13T08:15:05.339Z,81.33
2019-01-13T08:20:27.210Z,80.88
2019-01-13T08:25:45.178Z,80.60
2019-01-13T08:31:02.939Z,80.20
2019-01-13T08:36:20.330Z,78.57
2019-01-13T08:41:38.113Z,79.35
2019-01-13T08:46:56.293Z,79.74
2019-01-13T08:52:14.220Z,80.00
2019-01-13T08:57:31.811Z,80.30
2019-01-13T09:02:49.546Z,80.66
2019-01-13T09:08:07.318Z,80.20
2019-01-13T09:13:24.858Z,80.38
2019-01-13T09:18:42.650Z,80.36
2019-01-13T09:24:00.216Z,79.77
2019-01-13T09:29:17.889Z,79.44
2019-01-13T09:34:36.490Z,78.96
2019-01-13T09:39:54.081Z,78.92
2019-01-13T09:45:11.849Z,78.19
2019-01-13T09:50:30.174Z,77.72
2019-01-13T09:55:48.250Z,78.07
2019-01-13T10:01:06.100Z,78.16
2019-01-13T10:06:24.058Z,76.71
2019-01-13T10:11:42.190Z,77.17
2019-01-13T10:17:00.160Z,77.28
2019-01-13T10:22:18.103Z,76.86
2019-01-13T10:27:35.789Z,76.75
2019-01-13T10:32:55.180Z,77.45
2019-01-13T10:38:11.598Z,77.93
2019-01-13T10:43:28.834Z,78.10
2019-01-13T10:48:46.219Z,78.51
2019-01-13T10:54:09.112Z,78.50
2019-01-13T10:59:21.570Z,78.45
2019-01-13T11:04:38.878Z,78.70
2019-01-13T11:09:56.819Z,78.33
2019-01-13T11:15:21.249Z,77.69
2019-01-13T11:20:33.942Z,77.83
2019-01-13T11:25:51.871Z,78.00
2019-01-13T11:31:09.167Z,77.44
2019-01-13T11:36:26.859Z,77.60
2019-01-13T11:41:44.951Z,77.39
2019-01-13T11:47:02.659Z,76.95
2019-01-13T11:52:20.322Z,77.90
2019-01-13T11:57:38.713Z,78.30
2019-01-13T12:02:56.011Z,78.84
2019-01-13T12:08:15.621Z,77.99
2019-01-13T12:13:33.062Z,78.30
2019-01-13T12:18:51.128Z,78.72
2019-01-13T12:24:08.618Z,78.37
2019-01-13T12:29:26.847Z,78.52
2019-01-13T12:34:44.169Z,78.90
2019-01-13T12:40:03.082Z,78.32
2019-01-13T12:45:21.910Z,78.43
2019-01-13T12:50:40.916Z,79.59
2019-01-13T12:55:59.395Z,78.41
2019-01-13T13:01:16.624Z,78.31
2019-01-13T13:06:34.185Z,78.09
2019-01-13T13:11:52.096Z,78.43
2019-01-13T13:17:09.528Z,78.95
2019-01-13T13:22:28.200Z,78.88
2019-01-13T13:27:45.396Z,80.25
2019-01-13T13:33:03.266Z,80.37
2019-01-13T13:38:21.480Z,79.28
2019-01-13T13:43:37.889Z,79.35
2019-01-13T13:48:56.138Z,79.44
2019-01-13T13:54:14.442Z,78.54
2019-01-13T13:59:32.588Z,79.70
2019-01-13T14:04:50.694Z,79.07
2019-01-13T14:10:11.199Z,78.15
2019-01-13T14:15:30.444Z,78.99
2019-01-13T14:20:48.347Z,78.65
2019-01-13T14:26:06.646Z,78.19
2019-01-13T14:31:24.573Z,77.62
2019-01-13T14:36:43.556Z,77.83
2019-01-13T14:42:03.177Z,78.17
2019-01-13T14:47:21.269Z,78.71
2019-01-13T14:52:40.192Z,79.23
2019-01-13T14:57:58.304Z,79.85
2019-01-13T15:03:16.670Z,79.94
2019-01-13T15:08:35.845Z,79.76
2019-01-13T15:13:54.801Z,80.56
2019-01-13T15:19:12.784Z,81.17
2019-01-13T15:24:30.567Z,80.03
2019-01-13T15:29:49.487Z,81.71
2019-01-13T15:35:07.555Z,80.79
2019-01-13T15:40:25.630Z,80.51
2019-01-13T15:45:43.772Z,80.52
2019-01-13T15:51:02.114Z,80.65
2019-01-13T15:56:20.873Z,80.70
2019-01-13T16:01:38.161Z,79.82
2019-01-13T16:06:56.527Z,80.51
2019-01-13T16:12:14.783Z,80.39
2019-01-13T16:17:32.858Z,79.81
2019-01-13T16:22:50.826Z,79.94
2019-01-13T16:28:08.879Z,79.60
2019-01-13T16:33:26.959Z,79.66
2019-01-13T16:38:44.777Z,78.83
2019-01-13T16:44:02.263Z,79.00
2019-01-13T16:49:20.014Z,79.14
2019-01-13T16:54:37.792Z,78.97
2019-01-13T16:59:57.090Z,79.96
2019-01-13T17:05:14.741Z,80.19
2019-01-13T17:10:34.697Z,80.60
2019-01-13T17:15:52.188Z,80.22
2019-01-13T17:21:10.410Z,80.85
2019-01-13T17:26:29.815Z,81.93
2019-01-13T17:31:47.959Z,82.03
2019-01-13T17:37:06.673Z,82.41
2019-01-13T17:42:24.161Z,81.90
2019-01-13T17:47:43.551Z,82.53
2019-01-13T17:53:01.444Z,82.32
2019-01-13T17:58:19.343Z,81.66
2019-01-13T18:03:41.742Z,82.66
2019-01-13T18:09:00.308Z,82.11
2019-01-13T18:14:19.291Z,82.77
2019-01-13T18:19:36.866Z,83.03
2019-01-13T18:24:57.541Z,84.44
2019-01-13T18:30:16.692Z,83.93
2019-01-13T18:35:35.877Z,84.19
2019-01-13T18:40:54.968Z,84.60
2019-01-13T18:46:14.144Z,84.80
2019-01-13T18:51:31.815Z,84.88
2019-01-13T18:56:49.561Z,84.84
2019-01-13T19:02:08.058Z,85.22
2019-01-13T19:07:25.468Z,84.65
2019-01-13T19:12:43.397Z,84.18
2019-01-13T19:18:02.068Z,84.14
2019-01-13T19:23:21.485Z,83.53
2019-01-13T19:28:40.190Z,84.49
2019-01-13T19:33:57.945Z,84.42
2019-01-13T19:39:16.134Z,83.48
2019-01-13T19:44:34.658Z,83.79
2019-01-13T19:49:52.441Z,83.83
2019-01-13T19:55:11.412Z,83.48
2019-01-13T20:00:31.899Z,83.75
2019-01-13T20:05:49.635Z,84.82
2019-01-13T20:11:07.748Z,87.72
2019-01-13T20:16:28.274Z,88.96
2019-01-13T20:21:46.791Z,88.75
2019-01-13T20:27:05.429Z,88.13
2019-01-13T20:32:22.877Z,89.39
2019-01-13T20:37:40.897Z,88.68
2019-01-13T20:42:59.341Z,88.89
2019-01-13T20:48:19.863Z,88.06
2019-01-13T20:53:38.338Z,86.94
2019-01-13T20:58:56.668Z,88.05
2019-01-13T21:04:14.567Z,88.02
2019-01-13T21:09:32.033Z,87.52
2019-01-13T21:14:51.087Z,86.83
2019-01-13T21:20:09.370Z,88.29
2019-01-13T21:25:28.394Z,87.07
2019-01-13T21:30:47.166Z,86.06
2019-01-13T21:36:04.923Z,85.03
2019-01-13T21:41:23.597Z,86.74
2019-01-13T21:46:40.771Z,86.56
2019-01-13T21:51:58.076Z,86.24
2019-01-13T21:57:16.603Z,86.29
2019-01-13T22:02:36.637Z,86.34
2019-01-13T22:07:55.311Z,86.12
2019-01-13T22:13:12.504Z,85.76
2019-01-13T22:18:30.528Z,85.35
2019-01-13T22:23:48.275Z,85.87
2019-01-13T22:29:05.952Z,84.99
2019-01-13T22:34:23.492Z,84.87
2019-01-13T22:39:41.619Z,84.65
2019-01-13T22:44:59.330Z,84.36
2019-01-13T22:50:17.278Z,84.53
2019-01-13T22:55:35.130Z,83.12
2019-01-13T23:01:25.091Z,84.00
2019-01-13T23:06:42.134Z,84.00
2019-01-13T23:12:00.117Z,84.34
2019-01-13T23:17:17.927Z,84.94
2019-01-13T23:22:35.481Z,84.45
2019-01-13T23:27:54.225Z,83.98
2019-01-13T23:33:11.044Z,84.36
2019-01-13T23:38:28.522Z,84.05
2019-01-13T23:43:46.095Z,84.03
2019-01-13T23:49:04.424Z,84.18
2019-01-13T23:54:22.236Z,83.67
2019-01-13T23:59:40.986Z,83.44
